Time;durP1;ratioP1;P1;durP2;ratioP2;P2;SDS_P1;SDS_P2;PMS_P1;PMS_P2;Temp;Humidity;BMP_temperature;BMP_pressure;BME280_temperature;BME280_humidity;BME280_pressure;Samples;Min_cycle;Max_cycle;Signal;HPM_P1;HPM_P2
2022/07/22 00:01:27;;;;;;;14.77;3.00;;;15.70;99.90;;;;;;4953406;29;20464;-76
2022/07/22 00:03:52;;;;;;;13.70;2.88;;;15.70;99.90;;;;;;4951080;29;20047;-78
2022/07/22 00:06:18;;;;;;;17.58;3.00;;;15.70;99.90;;;;;;4920737;29;20106;-74
2022/07/22 00:08:44;;;;;;;17.33;3.03;;;15.70;99.90;;;;;;4952849;29;20108;-76
2022/07/22 00:11:10;;;;;;;15.55;2.60;;;15.70;99.90;;;;;;4936585;29;20128;-79
2022/07/22 00:13:35;;;;;;;14.95;2.92;;;15.70;99.90;;;;;;4953618;28;20540;-80
2022/07/22 00:16:01;;;;;;;14.93;2.83;;;15.80;99.90;;;;;;4954775;29;20049;-77
2022/07/22 00:18:28;;;;;;;15.15;3.30;;;15.80;99.90;;;;;;4955024;29;20063;-77
2022/07/22 00:20:54;;;;;;;13.85;3.08;;;15.80;99.90;;;;;;4937984;29;20462;-76
2022/07/22 00:23:20;;;;;;;12.45;3.00;;;15.80;99.90;;;;;;4953190;29;20066;-76
2022/07/22 00:25:46;;;;;;;19.02;3.05;;;15.80;99.90;;;;;;4921279;29;20472;-79
2022/07/22 00:28:11;;;;;;;17.23;3.33;;;15.90;99.90;;;;;;4947900;29;20051;-78
2022/07/22 00:30:37;;;;;;;12.53;3.10;;;15.90;99.90;;;;;;4934349;29;20062;-80
2022/07/22 00:33:03;;;;;;;13.68;3.15;;;15.90;99.90;;;;;;4933211;29;20224;-79
2022/07/22 00:35:29;;;;;;;16.30;2.63;;;15.90;99.90;;;;;;4933124;29;20488;-80
2022/07/22 00:37:55;;;;;;;18.85;3.30;;;15.90;99.90;;;;;;4934039;29;20306;-79
2022/07/22 00:40:21;;;;;;;16.33;3.17;;;15.90;99.90;;;;;;4933512;29;20131;-77
2022/07/22 00:42:47;;;;;;;14.57;2.45;;;15.90;99.90;;;;;;4934337;29;20055;-79
2022/07/22 00:45:12;;;;;;;14.75;3.15;;;15.90;99.90;;;;;;4932095;29;20059;-79
2022/07/22 00:47:38;;;;;;;14.93;2.87;;;15.90;99.90;;;;;;4934717;29;20055;-77
2022/07/22 00:50:04;;;;;;;12.73;3.15;;;15.90;99.90;;;;;;4931110;29;20131;-75
2022/07/22 00:52:32;;;;;;;12.50;2.83;;;15.90;99.90;;;;;;4934356;29;20617;-78
2022/07/22 00:54:59;;;;;;;16.08;2.67;;;15.90;99.90;;;;;;4931972;29;20428;-78
2022/07/22 00:57:25;;;;;;;20.40;3.33;;;15.90;99.90;;;;;;4934282;29;20055;-77
2022/07/22 00:59:51;;;;;;;17.15;2.63;;;15.90;99.90;;;;;;4933050;29;20506;-77
2022/07/22 01:02:16;;;;;;;10.05;2.35;;;15.90;99.90;;;;;;4933100;29;20134;-78
2022/07/22 01:04:42;;;;;;;18.87;2.23;;;15.90;99.90;;;;;;4931804;29;20043;-79
2022/07/22 01:07:08;;;;;;;19.98;2.75;;;15.90;99.90;;;;;;4917372;29;20048;-77
2022/07/22 01:09:34;;;;;;;8.77;2.22;;;15.80;99.90;;;;;;4917580;29;20059;-76
2022/07/22 01:12:01;;;;;;;14.65;2.13;;;15.80;99.90;;;;;;4932589;29;20051;-78
2022/07/22 01:14:26;;;;;;;16.13;2.80;;;15.80;99.90;;;;;;4932313;29;20098;-76
2022/07/22 01:16:52;;;;;;;12.98;2.33;;;15.80;99.90;;;;;;4917162;29;20083;-75
2022/07/22 01:19:19;;;;;;;11.82;2.20;;;15.80;99.90;;;;;;4937424;29;20048;-79
2022/07/22 01:21:46;;;;;;;16.80;2.72;;;15.80;99.90;;;;;;4918437;29;20092;-77
2022/07/22 01:24:12;;;;;;;15.18;2.90;;;15.80;99.90;;;;;;4916817;29;20087;-77
2022/07/22 01:26:38;;;;;;;16.88;2.25;;;15.90;99.90;;;;;;4915741;29;20060;-77
2022/07/22 01:29:04;;;;;;;16.00;2.50;;;15.80;99.90;;;;;;4915934;29;20152;-79
2022/07/22 01:31:29;;;;;;;14.50;2.67;;;15.80;99.90;;;;;;4916049;29;20132;-75
2022/07/22 01:33:55;;;;;;;12.35;2.58;;;15.80;99.90;;;;;;4882702;29;20056;-78
2022/07/22 01:36:22;;;;;;;15.80;2.50;;;15.80;99.90;;;;;;4915459;29;20179;-79
2022/07/22 01:38:47;;;;;;;10.60;2.40;;;15.80;99.90;;;;;;4915293;29;20103;-77
2022/07/22 01:41:13;;;;;;;11.82;2.30;;;15.70;99.90;;;;;;4915332;29;20091;-76
2022/07/22 01:43:39;;;;;;;9.48;2.42;;;15.70;99.90;;;;;;4899744;29;20058;-76
2022/07/22 01:46:05;;;;;;;16.20;2.80;;;15.60;99.90;;;;;;4916124;29;20048;-78
2022/07/22 01:48:31;;;;;;;10.43;2.15;;;15.60;99.90;;;;;;4914264;29;20388;-78
2022/07/22 01:50:57;;;;;;;10.02;2.25;;;15.60;99.90;;;;;;4915608;29;20047;-79
2022/07/22 01:53:23;;;;;;;12.02;2.17;;;15.60;99.90;;;;;;4926231;29;20385;-78
2022/07/22 01:55:49;;;;;;;17.40;2.50;;;15.60;99.90;;;;;;4936962;29;20066;-78
2022/07/22 01:58:15;;;;;;;11.70;2.38;;;15.60;99.90;;;;;;4935302;29;20466;-78
2022/07/22 02:00:41;;;;;;;12.47;2.20;;;15.60;99.90;;;;;;4938155;29;20083;-79
2022/07/22 02:03:10;;;;;;;11.98;2.65;;;15.60;99.90;;;;;;4919420;29;20125;-75
2022/07/22 02:05:36;;;;;;;12.43;2.15;;;15.60;99.90;;;;;;4919605;29;20066;-78
2022/07/22 02:08:08;;;;;;;19.10;2.00;;;15.70;99.90;;;;;;4919900;29;20110;-75
2022/07/22 02:10:34;;;;;;;13.75;2.15;;;15.70;99.90;;;;;;4936300;29;20405;-77
2022/07/22 02:13:01;;;;;;;12.93;2.35;;;15.70;99.90;;;;;;4935867;29;20079;-77
2022/07/22 02:15:27;;;;;;;13.18;2.50;;;15.70;99.90;;;;;;4934604;29;20055;-78
2022/07/22 02:17:54;;;;;;;13.63;2.22;;;15.70;99.90;;;;;;4934726;29;20048;-76
2022/07/22 02:20:20;;;;;;;13.82;1.85;;;15.70;99.90;;;;;;4933777;29;20055;-77
2022/07/22 02:22:46;;;;;;;10.43;2.20;;;15.70;99.90;;;;;;4918915;29;20056;-79
2022/07/22 02:25:11;;;;;;;12.63;1.92;;;15.70;99.90;;;;;;4934383;29;20153;-79
2022/07/22 02:27:39;;;;;;;11.57;2.17;;;15.70;99.90;;;;;;4935563;29;20059;-75
2022/07/22 02:30:06;;;;;;;15.82;2.42;;;15.70;99.90;;;;;;4935504;29;20523;-77
2022/07/22 02:32:31;;;;;;;;;;;15.70;99.90;;;;;;4935195;29;20048;-75
2022/07/22 02:34:57;;;;;;;8.67;2.30;;;15.70;99.90;;;;;;4901151;29;19933;-78
2022/07/22 02:37:23;;;;;;;18.10;2.30;;;15.70;99.90;;;;;;4935424;29;20051;-78
2022/07/22 02:39:48;;;;;;;12.07;2.25;;;15.70;99.90;;;;;;4934670;29;20051;-77
2022/07/22 02:42:14;;;;;;;9.60;1.58;;;15.70;99.90;;;;;;4934670;29;20044;-78
2022/07/22 02:44:40;;;;;;;12.50;2.22;;;15.70;99.90;;;;;;4918981;29;20067;-78
2022/07/22 02:47:07;;;;;;;10.45;1.58;;;15.60;99.90;;;;;;4937277;29;20048;-76
2022/07/22 02:49:33;;;;;;;10.50;1.67;;;15.70;99.90;;;;;;4920578;29;20047;-78
2022/07/22 02:52:01;;;;;;;11.60;2.15;;;15.70;99.90;;;;;;4938880;29;20083;-77
2022/07/22 02:54:26;;;;;;;13.80;1.83;;;15.60;99.90;;;;;;4935498;29;20048;-78
2022/07/22 02:56:52;;;;;;;10.02;1.70;;;15.60;99.90;;;;;;4935262;29;20043;-78
2022/07/22 02:59:18;;;;;;;10.77;2.08;;;15.60;99.90;;;;;;4934903;29;20052;-76
2022/07/22 03:01:44;;;;;;;7.78;1.75;;;15.70;99.90;;;;;;4919958;29;20087;-78
2022/07/22 03:04:10;;;;;;;8.45;1.67;;;15.70;99.90;;;;;;4934066;29;20051;-77
2022/07/22 03:06:36;;;;;;;11.65;1.88;;;15.70;99.90;;;;;;4937180;29;20043;-77
2022/07/22 03:09:02;;;;;;;10.13;1.90;;;15.60;99.90;;;;;;4950236;29;20106;-77
2022/07/22 03:11:27;;;;;;;9.83;1.73;;;15.60;99.90;;;;;;4939902;29;20048;-77
2022/07/22 03:13:53;;;;;;;9.90;1.80;;;15.60;99.90;;;;;;4941146;29;20075;-78
2022/07/22 03:16:19;;;;;;;11.50;1.60;;;15.70;99.90;;;;;;4936959;29;20049;-78
2022/07/22 03:18:44;;;;;;;13.32;2.00;;;15.70;99.90;;;;;;4947400;29;20179;-78
2022/07/22 03:21:10;;;;;;;10.63;1.67;;;15.70;99.90;;;;;;4935577;29;20044;-78
2022/07/22 03:23:36;;;;;;;11.02;1.70;;;15.70;99.90;;;;;;4922238;29;20118;-78
2022/07/22 03:26:02;;;;;;;10.20;1.50;;;15.70;99.90;;;;;;4934353;29;20056;-79
2022/07/22 03:28:28;;;;;;;10.63;1.67;;;15.70;99.90;;;;;;4934435;29;20077;-79
2022/07/22 03:30:54;;;;;;;12.73;1.60;;;15.60;99.90;;;;;;4935088;29;20049;-78
2022/07/22 03:33:19;;;;;;;13.80;1.50;;;15.70;99.90;;;;;;4933751;29;20529;-78
2022/07/22 03:35:45;;;;;;;8.70;1.48;;;15.70;99.90;;;;;;4933788;29;20276;-79
2022/07/22 03:38:11;;;;;;;15.40;1.65;;;15.70;99.90;;;;;;4933116;29;20138;-77
2022/07/22 03:40:37;;;;;;;7.93;1.90;;;15.70;99.90;;;;;;4935055;29;20047;-78
2022/07/22 03:43:02;;;;;;;7.63;1.53;;;15.70;99.90;;;;;;4917874;29;20086;-78
2022/07/22 03:45:28;;;;;;;13.07;1.90;;;15.70;99.90;;;;;;4917513;29;20047;-78
2022/07/22 03:47:57;;;;;;;11.38;1.65;;;15.70;99.90;;;;;;4934617;29;20051;-80
2022/07/22 03:50:24;;;;;;;11.05;1.70;;;15.60;99.90;;;;;;4916944;29;20558;-79
2022/07/22 03:52:49;;;;;;;11.18;1.60;;;15.60;99.90;;;;;;4919144;29;20051;-79
2022/07/22 03:55:15;;;;;;;7.90;1.80;;;15.70;99.90;;;;;;4933622;29;20139;-78
2022/07/22 03:57:41;;;;;;;11.30;1.38;;;15.70;99.90;;;;;;4934386;29;20066;-76
2022/07/22 04:00:07;;;;;;;9.43;1.63;;;15.70;99.90;;;;;;4932793;29;20044;-80
2022/07/22 04:02:33;;;;;;;15.40;1.83;;;15.70;99.90;;;;;;4935761;29;20043;-75
2022/07/22 04:04:59;;;;;;;12.30;1.92;;;15.70;99.90;;;;;;4932945;29;20380;-76
2022/07/22 04:07:24;;;;;;;14.00;1.52;;;15.70;99.90;;;;;;4902005;29;20048;-77
2022/07/22 04:09:50;;;;;;;8.50;1.67;;;15.70;99.90;;;;;;4932901;29;20050;-76
2022/07/22 04:12:16;;;;;;;11.40;1.60;;;15.70;99.90;;;;;;4934758;29;20499;-78
2022/07/22 04:14:41;;;;;;;14.73;2.03;;;15.70;99.90;;;;;;4917533;29;20059;-78
2022/07/22 04:17:07;;;;;;;9.90;1.60;;;15.80;99.90;;;;;;4933463;29;20051;-78
2022/07/22 04:19:33;;;;;;;8.90;1.50;;;15.70;99.90;;;;;;4901097;29;20051;-76
2022/07/22 04:21:59;;;;;;;9.32;1.63;;;15.70;99.90;;;;;;4933690;29;20062;-77
2022/07/22 04:24:24;;;;;;;10.80;1.58;;;15.70;99.90;;;;;;4934256;29;20139;-77
2022/07/22 04:26:50;;;;;;;10.40;1.85;;;15.80;99.90;;;;;;4933269;29;20102;-77
2022/07/22 04:29:16;;;;;;;9.82;1.42;;;15.70;99.90;;;;;;4924443;29;20056;-76
2022/07/22 04:31:41;;;;;;;11.13;1.55;;;15.80;99.90;;;;;;4935442;29;20437;-78
2022/07/22 04:34:07;;;;;;;10.13;1.58;;;15.80;99.90;;;;;;4917472;29;20056;-76
2022/07/22 04:36:33;;;;;;;8.82;2.00;;;15.80;99.90;;;;;;4933968;29;20235;-79
2022/07/22 04:38:59;;;;;;;14.05;2.22;;;15.80;99.90;;;;;;4934187;29;20055;-78
2022/07/22 04:41:24;;;;;;;13.40;2.10;;;15.90;99.90;;;;;;4933441;29;20058;-77
2022/07/22 04:43:50;;;;;;;11.40;1.67;;;15.80;99.90;;;;;;4935235;29;20064;-77
2022/07/22 04:46:16;;;;;;;12.40;1.70;;;15.90;99.90;;;;;;4917668;29;20048;-77
2022/07/22 04:48:42;;;;;;;8.45;1.85;;;15.90;99.90;;;;;;4932132;29;20376;-78
2022/07/22 04:51:07;;;;;;;12.25;1.63;;;15.90;99.90;;;;;;4933327;29;20055;-79
2022/07/22 04:53:33;;;;;;;9.70;1.38;;;15.90;99.90;;;;;;4933133;29;20047;-78
2022/07/22 04:55:59;;;;;;;5.45;1.42;;;15.90;99.90;;;;;;4933169;29;20142;-78
2022/07/22 04:58:25;;;;;;;10.00;1.60;;;15.90;99.90;;;;;;4936023;29;20078;-77
2022/07/22 05:00:50;;;;;;;11.18;1.75;;;15.90;99.90;;;;;;4905823;29;20052;-77
2022/07/22 05:03:17;;;;;;;8.30;1.48;;;15.90;99.90;;;;;;4925368;29;20051;-79
2022/07/22 05:05:42;;;;;;;11.70;1.63;;;16.00;99.90;;;;;;4921242;29;20048;-78
2022/07/22 05:08:09;;;;;;;8.20;1.17;;;16.00;99.90;;;;;;4921869;29;20044;-80
2022/07/22 05:10:34;;;;;;;10.87;1.97;;;16.00;99.90;;;;;;4938640;29;20044;-79
2022/07/22 05:13:00;;;;;;;5.83;1.40;;;16.00;99.90;;;;;;4920987;29;20053;-78
2022/07/22 05:15:26;;;;;;;8.50;1.70;;;16.00;99.90;;;;;;4937486;29;20044;-78
2022/07/22 05:17:51;;;;;;;7.57;1.23;;;16.10;99.90;;;;;;4947716;29;20049;-79
2022/07/22 05:20:17;;;;;;;11.05;1.58;;;16.10;99.90;;;;;;4954533;29;20419;-77
2022/07/22 05:22:43;;;;;;;10.00;1.50;;;16.10;99.90;;;;;;4940854;29;20154;-77
2022/07/22 05:25:11;;;;;;;10.43;1.90;;;16.10;99.90;;;;;;4941813;29;20501;-79
2022/07/22 05:27:36;;;;;;;8.02;1.42;;;16.20;99.90;;;;;;4957676;29;20384;-77
2022/07/22 05:30:03;;;;;;;5.63;1.38;;;16.10;99.90;;;;;;4946015;29;20138;-79
2022/07/22 05:32:29;;;;;;;8.60;1.45;;;16.10;99.90;;;;;;4964208;29;20147;-78
2022/07/22 05:34:54;;;;;;;6.95;1.35;;;16.20;99.90;;;;;;4959675;29;20054;-78
2022/07/22 05:37:20;;;;;;;10.45;1.90;;;16.10;99.90;;;;;;4942945;29;20043;-77
2022/07/22 05:39:46;;;;;;;6.93;1.37;;;16.20;99.90;;;;;;4939427;29;20051;-78
2022/07/22 05:42:12;;;;;;;5.78;1.50;;;16.30;99.90;;;;;;4956962;28;20070;-80
2022/07/22 05:44:37;;;;;;;7.10;1.67;;;16.30;99.90;;;;;;4959358;28;20096;-79
2022/07/22 05:47:03;;;;;;;7.63;1.40;;;16.30;99.90;;;;;;4959650;29;20464;-79
2022/07/22 05:49:32;;;;;;;10.10;1.40;;;16.40;99.90;;;;;;4961098;29;20054;-78
2022/07/22 05:52:00;;;;;;;10.15;1.33;;;16.40;99.90;;;;;;4946930;29;20091;-79
2022/07/22 05:54:26;;;;;;;7.03;1.50;;;16.50;99.90;;;;;;4946398;29;20047;-76
2022/07/22 05:56:52;;;;;;;12.30;2.10;;;16.50;99.90;;;;;;4973434;29;20044;-79
2022/07/22 05:59:21;;;;;;;7.70;1.60;;;16.50;99.90;;;;;;4974149;29;20494;-79
2022/07/22 06:01:46;;;;;;;8.18;1.20;;;16.60;99.90;;;;;;4959510;29;20054;-80
2022/07/22 06:04:12;;;;;;;10.60;1.33;;;16.60;99.90;;;;;;4957811;29;20109;-77
2022/07/22 06:06:39;;;;;;;3.80;1.23;;;16.60;99.90;;;;;;4976474;29;20095;-79
2022/07/22 06:09:05;;;;;;;;;;;16.60;99.90;;;;;;4971565;28;20090;-78
2022/07/22 06:11:30;;;;;;;5.13;1.40;;;16.60;99.90;;;;;;4970920;29;19918;-80
2022/07/22 06:13:56;;;;;;;10.70;1.58;;;16.70;99.90;;;;;;4953486;29;20043;-81
2022/07/22 06:16:22;;;;;;;4.65;1.20;;;16.70;99.90;;;;;;4936906;29;20054;-78
2022/07/22 06:18:47;;;;;;;6.40;1.20;;;16.70;99.90;;;;;;4968435;29;20130;-79
2022/07/22 06:21:13;;;;;;;8.47;1.50;;;16.70;99.90;;;;;;4949964;29;20058;-79
2022/07/22 06:23:39;;;;;;;8.50;1.20;;;16.80;99.90;;;;;;4948940;29;20079;-80
2022/07/22 06:26:05;;;;;;;7.00;1.05;;;16.90;99.90;;;;;;4967853;29;20059;-77
2022/07/22 06:28:31;;;;;;;8.63;1.17;;;17.00;99.90;;;;;;4941992;29;20047;-80
2022/07/22 06:30:57;;;;;;;14.87;1.30;;;17.10;99.90;;;;;;4943804;29;20054;-78
2022/07/22 06:33:22;;;;;;;6.23;1.10;;;17.00;99.90;;;;;;4941633;29;20134;-80
2022/07/22 06:35:48;;;;;;;7.72;1.25;;;17.00;99.90;;;;;;4948933;29;20059;-79
2022/07/22 06:38:14;;;;;;;6.23;1.20;;;17.10;99.90;;;;;;4938552;29;20420;-79
2022/07/22 06:40:40;;;;;;;9.88;1.38;;;17.20;99.90;;;;;;4932208;29;20068;-78
2022/07/22 06:43:06;;;;;;;4.80;1.37;;;17.10;99.90;;;;;;4940275;29;20052;-78
2022/07/22 06:45:32;;;;;;;9.73;1.48;;;17.20;99.90;;;;;;4944844;29;20502;-78
2022/07/22 06:47:57;;;;;;;7.63;1.30;;;17.40;99.90;;;;;;4945575;29;20077;-78
2022/07/22 06:50:23;;;;;;;8.55;1.08;;;17.50;99.90;;;;;;4942477;29;20130;-80
2022/07/22 06:52:50;;;;;;;9.83;1.27;;;17.40;99.90;;;;;;4945577;29;20075;-78
2022/07/22 06:55:16;;;;;;;9.80;1.48;;;17.30;99.90;;;;;;4911827;29;20088;-76
2022/07/22 06:57:42;;;;;;;7.78;1.13;;;17.50;99.90;;;;;;4926853;29;20107;-81
2022/07/22 07:00:09;;;;;;;9.77;1.42;;;17.60;99.90;;;;;;4944578;29;20055;-81
2022/07/22 07:02:34;;;;;;;;;;;17.80;99.90;;;;;;4947239;29;20048;-80
2022/07/22 07:05:00;;;;;;;8.60;1.38;;;17.80;99.90;;;;;;4944785;29;19930;-78
2022/07/22 07:07:26;;;;;;;9.67;1.13;;;17.90;99.90;;;;;;4947751;29;20047;-79
2022/07/22 07:09:52;;;;;;;6.40;1.20;;;17.80;99.90;;;;;;4948515;29;20072;-77
2022/07/22 07:12:17;;;;;;;9.93;1.20;;;17.70;99.90;;;;;;4947311;29;20059;-79
2022/07/22 07:14:44;;;;;;;7.47;1.00;;;17.80;99.90;;;;;;4950198;29;20069;-79
2022/07/22 07:17:10;;;;;;;9.50;1.00;;;17.60;99.90;;;;;;4948499;29;20075;-76
2022/07/22 07:19:36;;;;;;;9.53;1.20;;;17.40;99.90;;;;;;4941784;29;20058;-79
2022/07/22 07:22:01;;;;;;;6.00;1.17;;;17.60;99.90;;;;;;4938457;29;20052;-79
2022/07/22 07:24:28;;;;;;;7.97;1.10;;;17.70;99.90;;;;;;4940886;29;20231;-80
2022/07/22 07:26:54;;;;;;;;;;;17.90;99.90;;;;;;4911206;29;20046;-79
2022/07/22 07:29:20;;;;;;;9.87;0.97;;;17.60;99.90;;;;;;4923848;29;20418;-80
2022/07/22 07:31:46;;;;;;;9.32;1.30;;;17.80;99.90;;;;;;4938565;29;20050;-79
2022/07/22 07:34:15;;;;;;;9.15;1.02;;;18.00;99.90;;;;;;4936420;29;20102;-80
2022/07/22 07:36:41;;;;;;;;;;;18.20;99.90;;;;;;4937663;29;20079;-80
2022/07/22 07:39:13;;;;;;;8.68;1.10;;;18.30;99.90;;;;;;4936683;29;19923;-79
2022/07/22 07:41:40;;;;;;;8.50;1.30;;;18.40;99.90;;;;;;4937771;29;20057;-79
2022/07/22 07:44:06;;;;;;;7.18;0.90;;;18.50;99.90;;;;;;4934742;29;20074;-80
2022/07/22 07:46:32;;;;;;;6.13;0.97;;;18.50;99.90;;;;;;4936004;29;20484;-80
2022/07/22 07:49:00;;;;;;;5.90;0.73;;;18.60;99.90;;;;;;4933808;29;20346;-78
2022/07/22 07:51:26;;;;;;;5.80;0.80;;;18.80;99.90;;;;;;4947805;29;20055;-78
2022/07/22 07:53:53;;;;;;;5.97;0.82;;;18.70;99.90;;;;;;4960859;28;20136;-80
2022/07/22 07:56:19;;;;;;;5.93;1.00;;;18.90;99.90;;;;;;4959448;28;20047;-79
2022/07/22 07:58:46;;;;;;;3.40;0.67;;;19.00;99.90;;;;;;4941477;29;20043;-81
2022/07/22 08:01:14;;;;;;;;;;;18.80;99.90;;;;;;4957548;29;20305;-79
2022/07/22 08:03:39;;;;;;;3.63;0.88;;;19.10;99.90;;;;;;4953474;29;20349;-79
2022/07/22 08:06:11;;;;;;;4.05;0.80;;;19.10;99.90;;;;;;4959822;29;20043;-81
2022/07/22 08:08:38;;;;;;;6.82;0.80;;;19.40;99.90;;;;;;4957025;29;20087;-79
2022/07/22 08:11:05;;;;;;;7.47;0.93;;;19.50;99.90;;;;;;4938946;29;20051;-77
2022/07/22 08:13:30;;;;;;;4.57;0.75;;;19.70;99.90;;;;;;4955409;29;20066;-75
2022/07/22 08:15:58;;;;;;;6.97;0.80;;;19.60;99.90;;;;;;4954175;29;20051;-79
2022/07/22 08:18:24;;;;;;;4.07;0.80;;;19.80;99.90;;;;;;4938018;29;20051;-83
2022/07/22 08:20:51;;;;;;;13.02;0.73;;;;;;;;;;4957075;29;20194;-79
2022/07/22 08:23:17;;;;;;;6.32;0.82;;;19.30;99.90;;;;;;4959632;28;20067;-79
2022/07/22 08:25:42;;;;;;;6.87;0.80;;;19.30;99.90;;;;;;4945474;29;20043;-79
2022/07/22 08:28:08;;;;;;;5.63;0.90;;;19.30;99.90;;;;;;4938202;29;20449;-80
2022/07/22 08:30:36;;;;;;;8.07;0.98;;;19.40;99.90;;;;;;4936432;29;20135;-79
2022/07/22 08:33:02;;;;;;;6.85;0.82;;;19.30;99.90;;;;;;4941048;29;20411;-78
2022/07/22 08:35:28;;;;;;;4.90;0.80;;;19.40;99.90;;;;;;4939019;29;20035;-78
2022/07/22 08:37:55;;;;;;;6.93;0.75;;;19.40;99.90;;;;;;4906843;29;20047;-78
2022/07/22 08:40:21;;;;;;;5.55;0.80;;;19.40;99.90;;;;;;4938413;29;20484;-76
2022/07/22 08:42:48;;;;;;;7.30;0.68;;;19.00;99.90;;;;;;4921291;29;20059;-77
2022/07/22 08:45:15;;;;;;;7.20;0.80;;;19.10;99.90;;;;;;4937090;29;20059;-77
2022/07/22 08:47:47;;;;;;;5.47;0.90;;;19.10;99.90;;;;;;4937879;29;20055;-77
2022/07/22 08:50:13;;;;;;;3.45;0.63;;;19.20;99.90;;;;;;4937204;29;20395;-78
2022/07/22 08:52:39;;;;;;;6.77;0.80;;;19.40;99.90;;;;;;4936665;29;20047;-77
2022/07/22 08:55:07;;;;;;;7.53;0.80;;;19.10;99.90;;;;;;4937754;29;20047;-78
2022/07/22 08:57:33;;;;;;;5.25;0.57;;;19.30;99.90;;;;;;4938132;29;20500;-77
2022/07/22 09:00:00;;;;;;;3.70;0.70;;;19.50;99.90;;;;;;4920529;29;20449;-79
2022/07/22 09:02:27;;;;;;;8.07;0.80;;;19.50;99.90;;;;;;4921623;29;20059;-78
2022/07/22 09:04:53;;;;;;;;;;;19.50;99.90;;;;;;4937062;29;20318;-76
2022/07/22 09:07:29;;;;;;;8.85;0.70;;;19.40;99.90;;;;;;4937268;29;19978;-79
2022/07/22 09:09:56;;;;;;;5.53;0.90;;;19.60;99.90;;;;;;4936394;29;20051;-76
2022/07/22 09:12:22;;;;;;;7.07;0.95;;;19.70;99.90;;;;;;4952316;29;20051;-75
2022/07/22 09:14:53;;;;;;;4.78;0.70;;;19.60;99.90;;;;;;4935883;29;20479;-78
2022/07/22 09:17:38;;;;;;;8.60;0.90;;;19.70;99.90;;;;;;4936870;29;20400;-76
2022/07/22 09:20:18;;;;;;;6.35;0.80;;;19.60;99.90;;;;;;4937258;29;20083;-77
2022/07/22 09:22:47;;;;;;;5.85;0.70;;;19.20;99.90;;;;;;4937525;29;20116;-77
2022/07/22 09:25:30;;;;;;;4.97;0.80;;;19.20;99.90;;;;;;4937343;29;20083;-76
2022/07/22 09:28:11;;;;;;;8.88;0.95;;;19.10;99.90;;;;;;4937250;29;20575;-77
2022/07/22 09:30:39;;;;;;;4.55;0.70;;;18.90;99.90;;;;;;4936330;29;20373;-78
2022/07/22 09:33:07;;;;;;;8.00;0.90;;;19.10;99.90;;;;;;4921368;29;20043;-79
2022/07/22 09:35:33;;;;;;;4.82;0.60;;;19.20;99.90;;;;;;4936708;29;20044;-82
2022/07/22 09:38:01;;;;;;;3.73;0.80;;;19.30;99.90;;;;;;4938177;29;20047;-79
2022/07/22 09:40:29;;;;;;;3.78;0.82;;;19.50;99.90;;;;;;4935501;29;20315;-75
2022/07/22 09:43:00;;;;;;;8.20;1.05;;;19.20;99.90;;;;;;4935432;29;20425;-77
2022/07/22 09:45:28;;;;;;;6.45;0.80;;;19.10;99.90;;;;;;4919847;29;20064;-77
2022/07/22 09:47:56;;;;;;;6.18;0.80;;;19.20;99.90;;;;;;4935562;29;20124;-78
2022/07/22 09:50:23;;;;;;;5.40;0.90;;;19.40;99.90;;;;;;4935989;29;20051;-78
2022/07/22 09:52:51;;;;;;;10.23;0.98;;;19.40;99.90;;;;;;4936620;29;20149;-76
2022/07/22 09:55:20;;;;;;;9.75;1.10;;;19.30;99.90;;;;;;4936869;29;20499;-80
2022/07/22 09:57:48;;;;;;;4.80;0.80;;;19.20;99.90;;;;;;4904375;29;20493;-78
2022/07/22 10:00:16;;;;;;;4.70;0.80;;;19.20;99.90;;;;;;4920628;29;20055;-78
2022/07/22 10:02:46;;;;;;;7.22;0.90;;;19.20;99.90;;;;;;4935883;29;20496;-79
2022/07/22 10:05:14;;;;;;;9.10;1.08;;;19.30;99.90;;;;;;4919176;29;20052;-77
2022/07/22 10:07:44;;;;;;;6.22;1.30;;;19.40;99.90;;;;;;4937098;29;20134;-78
2022/07/22 10:10:17;;;;;;;8.00;1.10;;;19.50;99.90;;;;;;4920416;29;20521;-77
2022/07/22 10:12:45;;;;;;;9.48;0.88;;;19.60;99.90;;;;;;4935605;29;20487;-78
2022/07/22 10:15:12;;;;;;;4.82;1.10;;;19.50;99.90;;;;;;4920062;29;20143;-75
2022/07/22 10:17:41;;;;;;;5.82;0.95;;;19.60;99.90;;;;;;4920741;29;20086;-82
2022/07/22 10:20:08;;;;;;;6.47;1.15;;;19.60;99.90;;;;;;4919816;29;20142;-75
2022/07/22 10:22:41;;;;;;;7.57;1.20;;;19.50;99.90;;;;;;4937673;29;20058;-78
2022/07/22 10:25:08;;;;;;;7.40;1.10;;;19.30;99.90;;;;;;4936120;29;20059;-78
2022/07/22 10:27:56;;;;;;;5.93;1.10;;;19.40;99.90;;;;;;4936539;29;20052;-76
2022/07/22 10:30:34;;;;;;;7.95;1.13;;;19.50;99.90;;;;;;4937255;29;20055;-79
2022/07/22 10:33:08;;;;;;;6.57;0.90;;;19.80;99.90;;;;;;4937547;29;20059;-77
2022/07/22 10:35:57;;;;;;;5.57;0.70;;;19.90;99.90;;;;;;4937588;29;20500;-76
2022/07/22 10:38:24;;;;;;;6.57;0.80;;;20.10;99.90;;;;;;4921525;29;20094;-77
2022/07/22 10:41:10;;;;;;;5.85;1.00;;;20.50;99.90;;;;;;4937714;29;20130;-77
2022/07/22 10:43:41;;;;;;;6.85;0.80;;;20.50;99.90;;;;;;4961822;29;20136;-79
2022/07/22 10:46:09;;;;;;;4.10;0.93;;;20.50;99.90;;;;;;4951697;29;20051;-78
2022/07/22 10:48:38;;;;;;;6.57;1.00;;;20.80;99.90;;;;;;4959067;29;20109;-78
2022/07/22 10:51:08;;;;;;;6.95;1.00;;;21.10;99.90;;;;;;4948488;29;20406;-77
2022/07/22 10:53:56;;;;;;;6.47;0.80;;;21.30;99.90;;;;;;4968383;29;20047;-78
2022/07/22 10:56:29;;;;;;;7.15;1.08;;;21.60;99.90;;;;;;4964587;28;20050;-79
2022/07/22 10:59:14;;;;;;;5.63;0.80;;;21.80;99.90;;;;;;4966276;29;20077;-79
2022/07/22 11:01:42;;;;;;;7.23;0.97;;;;;;;;;;4961694;29;20174;-76
2022/07/22 11:04:17;;;;;;;6.00;0.70;;;21.00;99.90;;;;;;4943160;29;20395;-80
2022/07/22 11:06:43;;;;;;;3.22;0.80;;;20.90;99.90;;;;;;4935871;29;20043;-78
2022/07/22 11:09:10;;;;;;;;;;;21.30;99.90;;;;;;4955142;28;20075;-78
2022/07/22 11:11:42;;;;;;;3.67;0.80;;;21.40;99.90;;;;;;4951069;29;19996;-77
2022/07/22 11:14:18;;;;;;;4.57;0.90;;;21.20;99.90;;;;;;4939157;29;20059;-77
2022/07/22 11:16:46;;;;;;;4.68;0.80;;;20.80;99.90;;;;;;4956022;29;20125;-78
2022/07/22 11:19:11;;;;;;;5.32;0.70;;;20.90;99.90;;;;;;4938135;29;20059;-79
2022/07/22 11:21:38;;;;;;;7.20;0.90;;;20.60;99.90;;;;;;4935173;29;20051;-77
2022/07/22 11:24:06;;;;;;;7.10;0.93;;;20.20;99.90;;;;;;4947530;29;20050;-76
2022/07/22 11:26:40;;;;;;;6.55;0.90;;;20.40;99.90;;;;;;4954830;29;20121;-78
2022/07/22 11:29:07;;;;;;;7.68;1.00;;;19.60;99.90;;;;;;4955945;29;20074;-76
2022/07/22 11:31:33;;;;;;;6.05;0.80;;;19.50;99.90;;;;;;4955520;29;20460;-78
2022/07/22 11:34:14;;;;;;;3.78;0.70;;;19.80;99.90;;;;;;4951060;29;20043;-76
2022/07/22 11:36:42;;;;;;;7.05;1.23;;;19.80;99.90;;;;;;4955016;29;20055;-77
2022/07/22 11:39:10;;;;;;;9.10;0.85;;;19.50;99.90;;;;;;4940754;29;20055;-77
2022/07/22 11:41:36;;;;;;;6.97;0.82;;;19.40;99.90;;;;;;4958818;29;20472;-76
2022/07/22 11:44:03;;;;;;;8.50;1.10;;;19.30;99.90;;;;;;4957851;29;20059;-77
2022/07/22 11:46:38;;;;;;;4.13;1.10;;;19.50;99.90;;;;;;4941559;29;20088;-80
2022/07/22 11:49:05;;;;;;;4.22;0.70;;;19.40;99.90;;;;;;4939913;29;20086;-80
2022/07/22 11:51:32;;;;;;;5.43;0.98;;;19.40;99.90;;;;;;4953941;29;20182;-79
2022/07/22 11:54:00;;;;;;;9.00;1.13;;;19.50;99.90;;;;;;4952668;29;20058;-77
2022/07/22 11:56:26;;;;;;;5.13;1.02;;;19.20;99.90;;;;;;4954354;28;20062;-76
2022/07/22 11:58:54;;;;;;;7.10;1.00;;;19.00;99.90;;;;;;4956078;29;20062;-76
2022/07/22 12:01:20;;;;;;;5.45;0.70;;;19.20;99.90;;;;;;4958716;29;20051;-78
2022/07/22 12:03:55;;;;;;;3.25;0.77;;;19.30;99.90;;;;;;4961878;29;20093;-77
2022/07/22 12:06:22;;;;;;;4.65;0.98;;;19.30;99.90;;;;;;4963359;28;20050;-78
2022/07/22 12:08:53;;;;;;;3.90;0.93;;;19.20;99.90;;;;;;4958240;29;20130;-77
2022/07/22 12:11:22;;;;;;;11.25;1.02;;;19.30;99.90;;;;;;4938527;29;20059;-77
2022/07/22 12:13:49;;;;;;;5.90;1.00;;;19.40;99.90;;;;;;4955207;29;20066;-76
2022/07/22 12:16:27;;;;;;;5.65;0.60;;;19.50;99.90;;;;;;4939262;29;20054;-77
2022/07/22 12:19:19;;;;;;;4.80;0.68;;;19.60;99.90;;;;;;4955349;29;20047;-81
2022/07/22 12:22:06;;;;;;;5.80;0.90;;;19.80;99.90;;;;;;4951153;28;20055;-77
2022/07/22 12:24:34;;;;;;;6.28;0.85;;;20.00;99.90;;;;;;4953292;29;20051;-76
2022/07/22 12:27:10;;;;;;;4.47;0.95;;;20.20;99.90;;;;;;4948540;29;20040;-79
2022/07/22 12:29:36;;;;;;;6.13;0.90;;;20.40;99.90;;;;;;4936698;29;20043;-77
2022/07/22 12:32:08;;;;;;;5.60;0.87;;;20.60;99.90;;;;;;4934618;29;20054;-77
2022/07/22 12:34:53;;;;;;;7.20;0.95;;;20.80;99.90;;;;;;4968680;28;20134;-76
2022/07/22 12:37:21;;;;;;;8.43;0.70;;;20.80;99.90;;;;;;4937004;29;20051;-76
2022/07/22 12:40:05;;;;;;;5.97;0.73;;;20.90;99.90;;;;;;4947492;29;20416;-77
2022/07/22 12:42:36;;;;;;;6.53;0.80;;;20.90;99.90;;;;;;4918663;29;20047;-77
2022/07/22 12:45:09;;;;;;;3.58;0.60;;;21.10;99.90;;;;;;4954759;29;20142;-76
2022/07/22 12:47:53;;;;;;;5.78;0.50;;;20.70;99.90;;;;;;4956529;29;20054;-77